createdAt,value
2023-04-02T00:02:46.576Z,70.08
2023-04-02T00:07:58.444Z,70.15
2023-04-02T00:13:09.191Z,70.04
2023-04-02T00:18:18.923Z,70.06
2023-04-02T00:23:26.602Z,70.01
2023-04-02T00:28:34.314Z,70.06
2023-04-02T00:33:45.617Z,70.07
2023-04-02T00:38:53.360Z,69.99
2023-04-02T00:44:03.180Z,70.14
2023-04-02T00:49:16.850Z,70.24
2023-04-02T00:54:29.676Z,70.05
2023-04-02T00:59:50.484Z,69.97
2023-04-02T01:05:00.236Z,70.09
2023-04-02T01:10:24.411Z,69.96
2023-04-02T01:15:38.121Z,70.02
2023-04-02T01:21:07.613Z,70.01
2023-04-02T01:26:25.025Z,69.91
2023-04-02T01:31:37.679Z,69.96
2023-04-02T01:36:51.673Z,69.85
2023-04-02T01:42:07.958Z,69.91
2023-04-02T01:47:18.231Z,69.95
2023-04-02T01:52:38.533Z,70.01
2023-04-02T01:57:48.752Z,70.06
2023-04-02T02:02:56.428Z,70.12
2023-04-02T02:08:04.326Z,70.00
2023-04-02T02:13:18.002Z,69.94
2023-04-02T02:18:25.760Z,70.00
2023-04-02T02:23:33.318Z,70.08
2023-04-02T02:28:44.365Z,70.09
2023-04-02T02:33:57.171Z,70.16
2023-04-02T02:39:15.458Z,70.04
2023-04-02T02:44:29.318Z,70.05
2023-04-02T02:49:40.416Z,69.97
2023-04-02T02:54:50.337Z,70.03
2023-04-02T02:59:59.711Z,69.98
2023-04-02T03:05:09.683Z,70.06
2023-04-02T03:10:24.763Z,70.17
2023-04-02T03:15:40.137Z,70.15
2023-04-02T03:20:54.302Z,70.16
2023-04-02T03:26:10.011Z,70.12
2023-04-02T03:31:26.957Z,70.20
2023-04-02T03:36:38.855Z,70.13
2023-04-02T03:41:52.095Z,70.14
2023-04-02T03:47:06.088Z,70.04
2023-04-02T03:52:16.765Z,70.07
2023-04-02T03:57:31.540Z,70.16
2023-04-02T04:02:45.164Z,70.13
2023-04-02T04:07:57.469Z,70.04
2023-04-02T04:13:14.206Z,70.09
2023-04-02T04:18:35.324Z,70.11
2023-04-02T04:23:52.292Z,69.96
2023-04-02T04:29:10.094Z,70.07
2023-04-02T04:34:23.366Z,70.10
2023-04-02T04:39:43.736Z,70.09
2023-04-02T04:44:57.413Z,70.01
2023-04-02T04:50:11.615Z,70.06
2023-04-02T04:55:32.717Z,70.02
2023-04-02T05:00:46.615Z,69.99
2023-04-02T05:05:54.737Z,70.08
2023-04-02T05:11:07.668Z,70.11
2023-04-02T05:16:23.733Z,70.16
2023-04-02T05:21:40.446Z,69.98
2023-04-02T05:26:51.935Z,70.06
2023-04-02T05:32:06.098Z,70.18
2023-04-02T05:37:19.339Z,70.14
2023-04-02T05:42:30.980Z,70.12
2023-04-02T05:47:44.449Z,70.06
2023-04-02T05:52:58.801Z,70.14
2023-04-02T05:58:34.547Z,70.21
2023-04-02T06:03:52.164Z,70.15
2023-04-02T06:09:06.047Z,70.27
2023-04-02T06:14:15.979Z,70.36
2023-04-02T06:19:29.043Z,70.24
2023-04-02T06:24:39.333Z,70.19
2023-04-02T06:29:52.374Z,70.35
2023-04-02T06:35:00.974Z,70.25
2023-04-02T06:40:25.000Z,70.18
2023-04-02T06:45:36.605Z,70.18
2023-04-02T06:50:56.975Z,70.18
2023-04-02T06:56:08.103Z,70.27
2023-04-02T07:01:24.043Z,70.17
2023-04-02T07:06:32.298Z,70.14
2023-04-02T07:11:41.241Z,70.21
2023-04-02T07:16:49.247Z,70.29
2023-04-02T07:21:57.055Z,70.29
2023-04-02T07:27:07.920Z,70.28
2023-04-02T07:32:16.041Z,70.25
2023-04-02T07:37:23.357Z,70.12
2023-04-02T07:42:30.865Z,70.33
2023-04-02T07:47:38.328Z,70.27
2023-04-02T07:52:46.124Z,70.09
2023-04-02T07:57:55.689Z,70.18
2023-04-02T08:03:03.036Z,70.06
2023-04-02T08:08:10.503Z,70.02
2023-04-02T08:13:19.086Z,70.07
2023-04-02T08:18:27.481Z,70.10
2023-04-02T08:23:35.475Z,70.02
2023-04-02T08:28:43.251Z,69.85
2023-04-02T08:33:50.926Z,69.88
2023-04-02T08:39:01.446Z,70.04
2023-04-02T08:44:24.146Z,69.92
2023-04-02T08:49:37.809Z,69.98
2023-04-02T08:54:45.752Z,69.88
2023-04-02T09:00:00.483Z,69.95
2023-04-02T09:05:19.750Z,69.89
2023-04-02T09:10:35.601Z,69.98
2023-04-02T09:15:42.720Z,69.75
2023-04-02T09:20:50.581Z,69.94
2023-04-02T09:26:04.261Z,69.76
2023-04-02T09:31:21.671Z,69.66
2023-04-02T09:36:37.780Z,69.61
2023-04-02T09:41:50.209Z,69.52
2023-04-02T09:47:05.260Z,69.44
2023-04-02T09:52:22.411Z,69.47
2023-04-02T09:57:30.117Z,69.56
2023-04-02T10:02:37.746Z,69.49
2023-04-02T10:07:48.382Z,69.46
2023-04-02T10:13:01.908Z,69.35
2023-04-02T10:18:18.627Z,69.08
2023-04-02T10:23:29.455Z,69.03
2023-04-02T10:28:55.044Z,69.02
2023-04-02T10:34:07.380Z,69.03
2023-04-02T10:39:18.567Z,68.78
2023-04-02T10:44:44.449Z,68.66
2023-04-02T10:49:59.893Z,68.63
2023-04-02T10:55:15.663Z,68.53
2023-04-02T11:00:28.260Z,68.57
2023-04-02T11:05:44.562Z,68.29
2023-04-02T11:10:54.815Z,68.11
2023-04-02T11:16:02.502Z,68.01
2023-04-02T11:26:47.717Z,67.23
2023-04-02T11:32:31.577Z,67.33
2023-04-02T11:37:43.205Z,67.05
2023-04-02T11:42:51.709Z,66.82
2023-04-02T11:48:34.242Z,66.62
2023-04-02T11:53:44.186Z,66.66
2023-04-02T11:59:00.120Z,66.36
2023-04-02T12:04:43.972Z,66.27
2023-04-02T12:09:54.405Z,66.25
2023-04-02T12:15:02.783Z,66.25
2023-04-02T12:20:33.751Z,65.93
2023-04-02T12:25:42.073Z,65.68
2023-04-02T12:30:50.624Z,65.65
2023-04-02T12:36:02.023Z,65.61
2023-04-02T12:41:22.005Z,65.66
2023-04-02T12:46:29.700Z,65.42
2023-04-02T12:51:38.237Z,65.21
2023-04-02T12:56:45.924Z,65.08
2023-04-02T13:02:02.103Z,64.65
2023-04-02T13:07:18.191Z,64.75
2023-04-02T13:12:34.379Z,64.54
2023-04-02T13:17:44.119Z,64.49
2023-04-02T13:22:51.640Z,64.09
2023-04-02T13:27:59.547Z,63.10
2023-04-02T13:33:07.171Z,62.24
2023-04-02T13:38:14.946Z,62.29
2023-04-02T13:43:23.697Z,61.91
2023-04-02T13:48:31.048Z,61.33
2023-04-02T13:53:38.551Z,61.17
2023-04-02T13:58:47.215Z,60.50
2023-04-02T14:03:55.411Z,60.71
2023-04-02T14:09:06.022Z,60.32
2023-04-02T14:14:36.334Z,59.83
2023-04-02T14:20:06.848Z,59.81
2023-04-02T14:25:22.473Z,59.41
2023-04-02T14:30:38.844Z,59.26
2023-04-02T14:35:52.171Z,59.35
2023-04-02T14:41:06.568Z,59.35
2023-04-02T14:46:14.078Z,58.98
2023-04-02T14:51:28.548Z,59.30
2023-04-02T14:56:41.110Z,59.50
2023-04-02T15:01:51.830Z,59.27
2023-04-02T15:07:04.758Z,59.20
2023-04-02T15:12:16.524Z,58.90
2023-04-02T15:17:24.267Z,58.37
2023-04-02T15:22:40.092Z,58.16
2023-04-02T15:28:02.021Z,57.47
2023-04-02T15:33:36.330Z,57.12
2023-04-02T15:38:46.449Z,56.56
2023-04-02T15:44:04.590Z,56.25
2023-04-02T15:49:28.699Z,56.10
2023-04-02T15:54:55.064Z,55.73
2023-04-02T16:00:31.213Z,55.52
2023-04-02T16:05:44.636Z,55.09
2023-04-02T16:10:51.893Z,55.04
2023-04-02T16:16:05.944Z,55.19
2023-04-02T16:21:16.479Z,54.85
2023-04-02T16:26:41.011Z,55.01
2023-04-02T16:31:54.504Z,54.61
2023-04-02T16:37:10.598Z,54.83
2023-04-02T16:42:30.087Z,54.67
2023-04-02T16:47:57.914Z,54.81
2023-04-02T16:53:15.189Z,54.77
2023-04-02T16:58:36.506Z,54.68
2023-04-02T17:04:08.821Z,54.46
2023-04-02T17:09:22.406Z,54.22
2023-04-02T17:14:40.670Z,54.07
2023-04-02T17:19:49.535Z,54.03
2023-04-02T17:25:00.339Z,54.33
2023-04-02T17:30:14.873Z,53.86
2023-04-02T17:35:32.524Z,53.87
2023-04-02T17:40:44.947Z,54.05
2023-04-02T17:45:56.682Z,53.95
2023-04-02T17:51:17.263Z,53.92
2023-04-02T17:56:40.757Z,53.75
2023-04-02T18:01:52.594Z,53.65
2023-04-02T18:07:22.596Z,53.57
2023-04-02T18:12:43.639Z,53.17
2023-04-02T18:17:55.467Z,53.33
2023-04-02T18:23:13.247Z,53.24
2023-04-02T18:28:48.366Z,52.88
2023-04-02T18:34:20.264Z,52.45
2023-04-02T18:39:38.664Z,52.21
2023-04-02T18:44:57.624Z,52.17
2023-04-02T18:50:17.629Z,52.00
2023-04-02T18:55:28.705Z,51.87
2023-04-02T19:00:40.918Z,52.26
2023-04-02T19:05:53.631Z,52.17
2023-04-02T19:11:03.653Z,52.06
2023-04-02T19:16:35.700Z,52.11
2023-04-02T19:21:56.218Z,51.66
2023-04-02T19:27:10.199Z,51.74
2023-04-02T19:32:29.254Z,51.72
2023-04-02T19:37:41.999Z,51.24
2023-04-02T19:42:51.104Z,51.56
2023-04-02T19:48:00.368Z,51.14
2023-04-02T19:53:07.705Z,50.97
2023-04-02T19:58:20.362Z,51.25
2023-04-02T20:03:28.027Z,51.06
2023-04-02T20:08:36.658Z,51.34
2023-04-02T20:13:43.882Z,51.25
2023-04-02T20:18:51.368Z,51.52
2023-04-02T20:23:58.585Z,51.52
2023-04-02T20:29:05.753Z,51.59
2023-04-02T20:34:14.142Z,51.35
2023-04-02T20:39:21.978Z,51.38
2023-04-02T20:44:29.205Z,51.49
2023-04-02T20:49:36.874Z,51.74
2023-04-02T20:54:44.248Z,51.54
2023-04-02T20:59:51.686Z,51.77
2023-04-02T21:04:59.428Z,51.58
2023-04-02T21:10:07.288Z,51.57
2023-04-02T21:15:15.103Z,51.71
2023-04-02T21:20:22.331Z,51.73
2023-04-02T21:25:29.654Z,52.01
2023-04-02T21:30:36.849Z,52.14
2023-04-02T21:35:44.076Z,52.02
2023-04-02T21:40:51.301Z,52.16
2023-04-02T21:46:01.898Z,52.24
2023-04-02T21:51:14.413Z,52.25
2023-04-02T21:56:23.118Z,52.31
2023-04-02T22:01:33.877Z,52.46
2023-04-02T22:06:43.465Z,52.56
2023-04-02T22:11:53.137Z,52.69
2023-04-02T22:17:00.513Z,52.73
2023-04-02T22:22:07.890Z,52.89
2023-04-02T22:27:15.207Z,52.89
2023-04-02T22:32:22.695Z,52.74
2023-04-02T22:37:34.314Z,52.71
2023-04-02T22:42:41.512Z,52.77
2023-04-02T22:47:48.657Z,53.02
2023-04-02T22:52:56.325Z,53.11
2023-04-02T22:58:03.529Z,53.24
2023-04-02T23:03:10.745Z,53.23
2023-04-02T23:08:18.195Z,53.50
2023-04-02T23:13:25.623Z,53.67
2023-04-02T23:18:33.114Z,53.76
2023-04-02T23:23:40.647Z,53.90
2023-04-02T23:28:48.507Z,53.94
2023-04-02T23:33:56.162Z,54.12
2023-04-02T23:39:08.360Z,54.35
2023-04-02T23:44:15.898Z,54.27
2023-04-02T23:49:23.146Z,54.62
2023-04-02T23:54:30.755Z,54.76
2023-04-02T23:59:40.455Z,54.98
